Evansville, IN (47714)

5:24 AM CDT on July 30, 2015 (GMT -0500)
walnut/st.james | | Change Station
CLOSE
Current Station
Personal Weather Station
Location: Evansville, IN
Elevation: 394 ft
Nearby Weather Stations

Elev 394 ft 37.97 °N, 87.52 °W | Updated 2 seconds ago

Clear
Clear
66.6 °F
Feels Like 66.6 °F
N
0.0
Wind Variable Wind from NNW
Gusts 0.0 mph

Today
High -- | Low -- °F
--% Chance of Precip.
Yesterday
High -- | Low -- °F
Precip. -- in
5:51 AM 8:01 PM
Waxing Gibbous, 99% visible
Pressure 30.07 in
Visibility 10.0 miles
Clouds Clear
Dew Point 62 °F
Humidity 86%
Rainfall 0.00 in
Snow Depth Not available.
UV 0 out of 12
Pollen 4.80 out of 12
Air Quality Not available.
Flu Activity Not available.
METAR KEVV 300954Z AUTO VRB03KT 10SM CLR 22/16 A3008 RMK AO2 SLP182 T02170156

More Conditions Fewer Conditions

Pressure 30.07 in
Visibility 10.0 miles
Clouds Clear
Dew Point 62 °F
Humidity 86%
Rainfall 0.00 in
Snow Depth Not available.
UV 0 out of 12
Pollen 4.80 out of 12
Air Quality Not available.
Flu Activity Not available.
METAR KEVV 300954Z AUTO VRB03KT 10SM CLR 22/16 A3008 RMK AO2 SLP182 T02170156

More Conditions Fewer Conditions

10-Day Weather Forecast

×

Almanac

Astronomy

Jul. 30, 2015 Rise Set
Actual Time
Civil Twilight
Nautical Twilight
Astronomical Twilight
Moon
Length of Visible Light
Length of Day
Tomorrow will be .
, % of the Moon is Illuminated

Today's Extremes

State Highs State Lows

Community

WunderPhotos

Upload Photos

1,842,320 photos uploaded!

WunderBlogs® & News

Nearby

Air Quality

  Air Quality AQ Index Pollutant
Not available.

Snow Depth

Station Depth Elevation

Earthquake Activity

City Distance Mag. Time & Date
Minimum magnitude displayed is 2.5.

Coastal Water Temperatures

Place Temperature

Stations

Nearby Weather Stations

Station Location Temp. Windchill Dew Point Humidity Wind Precip. Elev Updated Type